^^
Datos históricos de la estación: Murcia-Puente Tocinos
Diario Informe para Agosto 24, 2019 Unidades:  Ingés    Métrico   Ambas
Diario Semanal Mensual Anual
  Máxima: Mínima: Promedio:
Temperatura: 74.8 °F 61.3 °F 66.7 °F
Punto de rocio: 61.3 °F 46.8 °F 55.6 °F
Humedad: 86% 38.3% 69%
Velocidad viento: 18.1mph 0mph 6mph
Racha viento: 31.3mph - -
Viento- - Este
Presión: 30 in 29.8 in -
Precipitación: 0.13 in    
 
 
Tabla de datos para Agosto 24, 2019
Hora Temperatura Punto de rocio Presión Viento Velocidad viento Racha viento Humedad Intensidad lluvia(por hora) Nubes
00:04 67.3 °F 60.8 °F 29.9 in NE 5.9 mph 10.4 mph 79.9% 0 in
00:09 67.1 °F 61 °F 29.9 in NNE 6 mph 10.4 mph 80.5% 0 in
00:14 66.7 °F 61 °F 29.9 in NNE 6.2 mph 10.7 mph 81.4% 0 in
00:19 66.7 °F 61 °F 29.9 in NNE 6.5 mph 11.5 mph 82% 0 in
00:24 66.6 °F 61.2 °F 29.9 in NE 6.9 mph 12 mph 82.9% 0 in
00:29 66.6 °F 61.2 °F 29.9 in NNE 6.6 mph 10.4 mph 83% 0 in
00:34 66.4 °F 61.2 °F 29.9 in NNE 6.2 mph 10 mph 83% 0 in
00:39 66.2 °F 61 °F 29.9 in NNE 6.1 mph 9 mph 83% 0 in
00:44 66 °F 60.8 °F 29.9 in NE 5.9 mph 7.4 mph 83% 0 in
00:49 66 °F 61 °F 29.9 in NE 5.5 mph 8.1 mph 83.9% 0 in
00:54 66 °F 61 °F 29.9 in NE 4.7 mph 8 mph 84% 0 in
00:59 66 °F 61 °F 29.9 in NNE 4.5 mph 7.6 mph 84% 0 in
01:04 65.8 °F 61 °F 29.9 in NNE 4.3 mph 8.1 mph 84% 0 in
01:09 65.8 °F 61 °F 29.9 in NNE 4.7 mph 8 mph 84% 0 in
01:14 65.8 °F 61 °F 29.9 in NNE 5.2 mph 8.5 mph 84% 0 in
01:19 65.7 °F 60.8 °F 29.9 in NNE 5 mph 9 mph 84% 0 in
01:24 65.7 °F 61 °F 29.9 in NNE 4.7 mph 8.1 mph 84.9% 0 in
01:29 65.7 °F 61 °F 29.9 in NNE 5 mph 8.1 mph 85% 0 in
01:34 65.5 °F 60.8 °F 29.9 in NNE 5.4 mph 8.1 mph 85% 0 in
01:39 65.5 °F 60.8 °F 29.9 in NNE 5.2 mph 8.5 mph 85% 0 in
01:44 65.7 °F 60.8 °F 29.9 in NNE 4.7 mph 9 mph 84.6% 0 in
01:49 65.7 °F 60.6 °F 29.9 in NNE 4.7 mph 9 mph 84% 0 in
01:54 65.7 °F 61 °F 29.9 in NE 4.7 mph 6.2 mph 85% 0 in
01:59 65.5 °F 60.8 °F 29.9 in NE 4.1 mph 6 mph 85% 0 in
02:04 65.5 °F 60.8 °F 29.9 in NE 3.1 mph 5.4 mph 85% 0 in
02:09 65.3 °F 60.8 °F 29.9 in NE 3 mph 5 mph 85% 0 in
02:14 65.3 °F 61 °F 29.9 in NE 2.9 mph 5.9 mph 85.9% 0 in
02:19 65.1 °F 60.8 °F 29.9 in NE 2.9 mph 6 mph 86% 0 in
02:24 65.1 °F 60.8 °F 29.9 in NE 2.9 mph 6 mph 86% 0 in
02:29 65.1 °F 60.8 °F 29.9 in ENE 2.9 mph 5 mph 86% 0 in
02:34 65.1 °F 60.6 °F 29.9 in ENE 2.9 mph 5 mph 85.7% 0 in
02:39 64.9 °F 60.3 °F 29.9 in Este 2.5 mph 5 mph 85% 0 in
02:44 64.9 °F 60.3 °F 29.9 in Este 2 mph 3 mph 85% 0 in
02:49 64.9 °F 60.3 °F 29.9 in NO 1.8 mph 4.6 mph 85% 0 in
02:54 64.9 °F 60.1 °F 29.9 in NO 1.4 mph 5 mph 84.2% 0 in
02:59 64.9 °F 60.1 °F 29.9 in NO 1.4 mph 3.6 mph 84% 0 in
03:04 64.9 °F 60.1 °F 29.9 in North 1.4 mph 4.6 mph 84% 0 in
03:09 64.9 °F 60.1 °F 29.9 in North 1.6 mph 5 mph 84.2% 0 in
03:14 64.9 °F 60.3 °F 29.9 in North 2 mph 3.5 mph 85% 0 in
03:19 64.9 °F 60.3 °F 29.9 in North 1.2 mph 2 mph 85% 0 in
03:24 64.9 °F 60.3 °F 29.9 in Calm     85% 0 in
03:29 64.9 °F 60.3 °F 29.9 in Calm     85% 0 in
03:34 64.9 °F 60.3 °F 29.9 in Calm     85% 0 in
03:39 64.9 °F 60.3 °F 29.9 in Calm     85% 0 in
03:44 64.8 °F 60.1 °F 29.9 in Calm     85% 0 in
03:49 64.8 °F 59.7 °F 29.9 in Calm     83.7% 0 in
03:54 64.6 °F 59.4 °F 29.9 in Calm     83% 0 in
03:59 64.6 °F 59.4 °F 29.9 in Calm     83% 0 in
04:04 64.4 °F 59.2 °F 29.9 in Calm     83% 0 in
04:09 64.2 °F 59 °F 29.9 in Calm   3.6 mph 82.8% 0 in
04:14 64 °F 58.8 °F 29.9 in Calm   4 mph 82.8% 0 in
04:19 64 °F 58.6 °F 29.9 in Calm   3 mph 82.5% 0 in
04:24 63.9 °F 58.5 °F 29.9 in Calm     82.6% 0 in
04:29 63.9 °F 58.6 °F 29.9 in Calm     83% 0 in
04:34 63.7 °F 58.5 °F 29.9 in Calm     83% 0 in
04:39 63.7 °F 58.5 °F 29.9 in Calm     83% 0 in
04:44 63.7 °F 58.3 °F 29.9 in Calm   4.3 mph 82.7% 0 in
04:49 63.7 °F 57.9 °F 29.9 in ESE 0.7 mph 5 mph 81.5% 0 in
04:54 63.7 °F 57.7 °F 29.9 in ESE 1.8 mph 4 mph 81% 0 in
04:59 63.9 °F 57.9 °F 29.9 in SSE 1.9 mph 5 mph 81% 0 in
05:04 63.9 °F 57.6 °F 29.9 in Sur 2 mph 5 mph 80% 0 in
05:09 63.9 °F 57.6 °F 29.9 in Sur 2 mph 4 mph 80% 0 in
05:14 64 °F 57.7 °F 29.9 in Sur 2 mph 3 mph 80.3% 0 in
05:19 64 °F 57.9 °F 29.9 in SSE 1.8 mph 4.6 mph 80.5% 0 in
05:24 64 °F 57.6 °F 29.9 in SSE 1.4 mph 5.2 mph 79% 0 in
05:29 64.2 °F 57.2 °F 29.9 in Sur 2.1 mph 6.2 mph 78% 0 in
05:34 64.2 °F 57.2 °F 29.9 in Sur 3.1 mph 6.2 mph 78% 0 in
05:39 64.2 °F 56.8 °F 29.9 in SSE 3.3 mph 6 mph 77.1% 0 in
05:44 64.2 °F 56.8 °F 29.9 in Sur 3.6 mph 6 mph 77% 0 in
05:49 64.2 °F 56.8 °F 29.9 in Sur 2.9 mph 5 mph 77% 0 in
05:54 64.2 °F 56.8 °F 29.9 in Sur 1.8 mph 3.5 mph 77% 0 in
05:59 64.2 °F 56.8 °F 29.9 in Sur 1.1 mph 3 mph 77% 0 in
06:04 64 °F 56.8 °F 29.9 in Calm   3.5 mph 77% 0 in
06:09 63.9 °F 56.8 °F 29.9 in SO 0.5 mph 4 mph 77.8% 0 in
06:14 63.5 °F 57 °F 29.9 in ONO 1.4 mph 5 mph 79.3% 0 in
06:19 63.1 °F 57 °F 29.9 in NO 1.4 mph 5 mph 80.5% 0 in
06:24 63 °F 57.2 °F 29.9 in NO 1.4 mph 5 mph 81.4% 0 in
06:29 62.8 °F 57.2 °F 29.9 in NO 1.8 mph 5 mph 82% 0 in
06:34 62.4 °F 57.2 °F 29.9 in NO 2.4 mph 5 mph 83% 0 in
06:39 62.2 °F 57 °F 29.9 in NO 1.5 mph   83% 0 in
06:44 62.2 °F 57.2 °F 29.9 in Calm     83.9% 0 in
06:49 62.2 °F 57.4 °F 29.9 in Calm     84% 0 in
06:54 62.2 °F 57 °F 29.8 in Calm     82.9% 0 in
06:59 62.2 °F 56.3 °F 29.8 in Calm     81% 0 in
07:04 62.2 °F 55.9 °F 29.9 in Calm     80% 0 in
07:09 62.2 °F 55.9 °F 29.9 in Calm   3.5 mph 80.1% 0 in
07:14 62.4 °F 56.3 °F 29.9 in Calm   3 mph 80.4% 0 in
07:19 62.6 °F 56.1 °F 29.9 in Calm   4 mph 79.3% 0 in
07:24 62.8 °F 55.8 °F 29.9 in Calm   5 mph 78.1% 0 in
07:29 63 °F 55.9 °F 29.9 in SSO 1.1 mph 5 mph 78% 0 in
07:34 63.1 °F 56.1 °F 29.9 in SSO 2.9 mph 5 mph 78% 0 in
07:39 63.3 °F 56.3 °F 29.9 in SSO 2.4 mph 3.5 mph 77.9% 0 in
07:44 63.7 °F 55.9 °F 29.9 in SE 1.4 mph 3.6 mph 76% 0 in
07:49 63.7 °F 55.2 °F 29.9 in SE 1.6 mph 4 mph 74.1% 0 in
07:54 63.5 °F 55.2 °F 29.9 in SE 2 mph 4.6 mph 74% 0 in
07:59 63.5 °F 55 °F 29.9 in SSE 2.2 mph 5.8 mph 74% 0 in
08:04 63.5 °F 55 °F 29.9 in SSE 2.4 mph 6 mph 74% 0 in
08:09 63.5 °F 55 °F 29.9 in SE 2.7 mph 6 mph 74% 0 in
08:14 63.7 °F 55.2 °F 29.9 in SE 3.1 mph 6 mph 74% 0 in
08:19 63.7 °F 55.4 °F 29.9 in SE 3.3 mph 5.2 mph 74.3% 0 in
08:24 63.9 °F 55.6 °F 29.8 in SE 3.6 mph 5 mph 74.3% 0 in
08:29 64 °F 55.6 °F 29.8 in SSE 3.4 mph 5.8 mph 74.1% 0 in
08:34 64 °F 55.9 °F 29.9 in SE 3.1 mph 6 mph 75% 0 in
08:39 64 °F 55.9 °F 29.9 in SE 2.7 mph 4 mph 75% 0 in
08:44 64.2 °F 56.1 °F 29.9 in SE 2 mph 3.6 mph 75% 0 in
08:49 64.4 °F 56.3 °F 29.9 in SE 1.9 mph 4 mph 75.2% 0 in
08:54 64.9 °F 56.8 °F 29.9 in SE 1.8 mph 3 mph 75.1% 0 in
08:59 65.7 °F 57.2 °F 29.9 in ESE 1.1 mph 2 mph 74% 0 in
09:04 66.6 °F 57.2 °F 29.9 in Calm   2.3 mph 72.1% 0 in
09:09 66.7 °F 57 °F 29.8 in Calm   2 mph 71% 0 in
09:14 66.9 °F 57.2 °F 29.8 in Calm     71% 0 in
09:19 66.9 °F 56.8 °F 29.9 in Calm     70% 0 in
09:24 66.9 °F 56.5 °F 29.9 in Calm     69.4% 0 in
09:29 66.7 °F 56.3 °F 29.9 in Calm   5.2 mph 69% 0 in
09:34 66.6 °F 55.9 °F 29.9 in Calm   5.2 mph 68.4% 0 in
09:39 66.6 °F 55.8 °F 29.8 in SSO 1.1 mph 5 mph 68% 0 in
09:44 66.6 °F 55.8 °F 29.8 in Sur 2.9 mph 5 mph 68% 0 in
09:49 66.7 °F 55.6 °F 29.9 in SE 2.5 mph 5 mph 67.3% 0 in
09:54 66.9 °F 55.8 °F 29.9 in OSO 1.8 mph 4 mph 67.1% 0 in
09:59 67.3 °F 56.8 °F 29.9 in NNO 1.8 mph 5 mph 69.2% 0 in
10:04 67.3 °F 57.2 °F 29.9 in NNE 1.8 mph 5 mph 70% 0 in
10:09 67.3 °F 57.2 °F 29.9 in NNE 2.2 mph 5.8 mph 70% 0 in
10:14 67.1 °F 57.2 °F 29.9 in NE 2.9 mph 6 mph 70.3% 0 in
10:19 67.3 °F 57.6 °F 29.9 in ENE 3 mph 5.9 mph 70.9% 0 in
10:24 67.3 °F 57.6 °F 29.9 in NE 3.1 mph 6 mph 71% 0 in
10:29 67.3 °F 57.6 °F 29.9 in NE 3.3 mph 6.2 mph 71% 0 in
10:34 67.5 °F 57.6 °F 29.9 in NNE 3.6 mph 6 mph 70.8% 0 in
10:39 67.5 °F 57.4 °F 29.9 in NE 3.4 mph 5 mph 70.1% 0 in
10:44 67.6 °F 57.4 °F 29.9 in NE 3.1 mph 6.2 mph 69.7% 0 in
10:49 67.6 °F 57.4 °F 29.9 in NE 3 mph 6 mph 69.5% 0 in
10:54 67.8 °F 57.2 °F 29.9 in NE 2.9 mph 6 mph 69% 0 in
10:59 68 °F 57.6 °F 29.9 in NNE 2.9 mph 5.9 mph 69.5% 0 in
11:04 68.4 °F 57.4 °F 29.9 in NE 2.9 mph 7.4 mph 68.2% 0 in
11:09 68.4 °F 57.2 °F 29.9 in NE 3.4 mph 9.2 mph 67.6% 0 in
11:14 68.5 °F 56.8 °F 29.9 in NE 4.3 mph 10 mph 66.3% 0 in
11:19 68.9 °F 56.5 °F 29.9 in NE 5 mph 10.4 mph 64.5% 0 in
11:24 69.3 °F 56.1 °F 29.9 in NE 6.2 mph 10 mph 62.9% 0 in
11:29 69.6 °F 55.2 °F 29.9 in NE 6.2 mph 13 mph 60.2% 0 in
11:34 69.8 °F 55.6 °F 29.9 in NE 6.2 mph 15.2 mph 60.6% 0 in
11:39 70 °F 55.6 °F 29.9 in NNE 6.9 mph 15 mph 60.2% 0 in
11:44 69.8 °F 55.6 °F 29.9 in NNE 8.1 mph 15 mph 61% 0 in
11:49 70 °F 56.3 °F 29.9 in NE 8.3 mph 15 mph 61.9% 0 in
11:54 70.2 °F 56.8 °F 29.9 in NE 8.7 mph 16.1 mph 63% 0 in
11:59 70.3 °F 57.6 °F 29.9 in NE 8.6 mph 16.3 mph 64.2% 0 in
12:04 70.3 °F 57.9 °F 29.9 in NE 8.5 mph 18.1 mph 64.9% 0 in
12:09 70.2 °F 58.1 °F 29.9 in NE 9.3 mph 18.4 mph 65.6% 0 in
12:14 70.3 °F 58.8 °F 29.9 in NE 10.7 mph 17 mph 66.8% 0 in
12:19 70.9 °F 59.7 °F 29.9 in NE 10.1 mph 20.4 mph 68.2% 0 in
12:24 70.7 °F 60.8 °F 29.9 in NE 9.2 mph 21 mph 71% 0 in
12:29 70.3 °F 61 °F 29.9 in NE 10.6 mph 21 mph 72% 0 in
12:34 70.7 °F 61 °F 29.9 in NE 13 mph 21 mph 71.6% 0 in
12:39 70.9 °F 61 °F 29.9 in NE 11.7 mph 16.1 mph 70.7% 0 in
12:44 71.1 °F 61.3 °F 29.9 in NE 9.7 mph 19.6 mph 71.4% 0 in
12:49 70.7 °F 61.2 °F 29.9 in NNE 10.5 mph 20 mph 72% 0 in
12:54 70.9 °F 61.3 °F 29.9 in NE 11.8 mph 18.4 mph 71.9% 0 in
12:59 70.9 °F 61 °F 29.9 in NE 11.4 mph 18 mph 70.8% 0 in
13:04 71.1 °F 60.4 °F 29.9 in NNE 10.7 mph 19.2 mph 68.9% 0 in
13:09 71.1 °F 60.1 °F 29.9 in NE 10.9 mph 20 mph 68.4% 0 in
13:14 71.1 °F 60.1 °F 29.9 in NE 11.4 mph 20.7 mph 68.3% 0 in
13:19 71.2 °F 60.1 °F 29.9 in NE 12.4 mph 23.7 mph 67.6% 0 in
13:24 71.2 °F 59.7 °F 29.9 in NE 14 mph 24.2 mph 67% 0 in
13:29 71.2 °F 60.1 °F 29.9 in NE 13.4 mph 22 mph 67.8% 0 in
13:34 71.6 °F 59.9 °F 29.9 in NE 12.5 mph 18 mph 66.5% 0 in
13:39 71.8 °F 59.4 °F 29.9 in NE 11.8 mph 21.3 mph 64.9% 0 in
13:44 72 °F 59 °F 29.9 in NE 10.7 mph 21 mph 63.9% 0 in
13:49 72.3 °F 59 °F 29.9 in NE 10.7 mph 17 mph 63% 0 in
13:54 72.7 °F 58.6 °F 29.9 in NE 10.7 mph 16.3 mph 61.4% 0 in
13:59 72.9 °F 57.9 °F 29.9 in NE 10.4 mph 18.4 mph 59.6% 0 in
14:04 72.9 °F 58.3 °F 29.9 in NE 10 mph 21.9 mph 60.3% 0 in
14:09 73 °F 58.1 °F 29.9 in ENE 10.6 mph 22 mph 59.6% 0 in
14:14 73 °F 57.4 °F 29.9 in ENE 11.4 mph 20.1 mph 57.9% 0 in
14:19 73 °F 56.3 °F 29.9 in ENE 11.4 mph 21 mph 55.9% 0 in
14:24 73 °F 54.7 °F 29.9 in NE 11.4 mph 22.3 mph 52.6% 0 in
14:29 73 °F 54.1 °F 29.9 in ENE 11.6 mph 22 mph 51.6% 0 in
14:34 73.6 °F 54.7 °F 29.9 in NE 11.8 mph 19 mph 51.8% 0 in
14:39 74.1 °F 53.8 °F 29.9 in NE 11.2 mph 19.6 mph 49.2% 0 in
14:44 74.5 °F 54.1 °F 29.9 in ENE 10.2 mph 20.8 mph 49.3% 0 in
14:49 74.1 °F 54 °F 29.9 in ENE 10.4 mph 21 mph 49.2% 0 in
14:54 74.1 °F 53.1 °F 29.9 in ENE 10.7 mph 21 mph 47.8% 0 in
14:59 73.9 °F 52.5 °F 29.9 in NE 11.3 mph 21 mph 47.2% 0 in
15:04 74.3 °F 52.9 °F 29.9 in ENE 12.3 mph 19.6 mph 47.2% 0 in
15:09 74.3 °F 53.1 °F 29.8 in ENE 11.5 mph 20.7 mph 47.5% 0 in
15:14 74.5 °F 52.3 °F 29.8 in NE 10.2 mph 23.5 mph 46.3% 0 in
15:19 74.5 °F 52.2 °F 29.8 in NE 10.9 mph 24.8 mph 45.7% 0 in
15:24 74.5 °F 50.7 °F 29.8 in NE 12.3 mph 26.5 mph 43.2% 0 in
15:29 74.5 °F 50 °F 29.8 in NE 13.5 mph 26 mph 42.1% 0 in
15:34 74.7 °F 49.5 °F 29.8 in NE 15.6 mph 25.6 mph 41.1% 0 in
15:39 74.8 °F 47.8 °F 29.8 in NE 14.6 mph 26 mph 38.3% 0 in
15:44 74.5 °F 48.2 °F 29.8 in NE 13 mph 27.6 mph 39.4% 0 in
15:49 73.9 °F 49.1 °F 29.9 in NE 14 mph 28 mph 41.5% 0 in
15:54 73.8 °F 50.5 °F 29.9 in NE 15.6 mph 26.8 mph 44.1% 0 in
15:59 73.8 °F 49.8 °F 29.9 in NE 16.2 mph 27 mph 43.2% 0 in
16:04 73.4 °F 48.7 °F 29.9 in NE 17 mph 31.3 mph 41.9% 0 in
16:09 73.2 °F 48.9 °F 29.8 in NE 17.4 mph 31 mph 42.3% 0 in
16:14 72.9 °F 50 °F 29.8 in NE 18.1 mph 29 mph 44.3% 0 in
16:19 73 °F 50 °F 29.8 in NE 17.4 mph 26.5 mph 44.5% 0 in
16:24 72.9 °F 50.5 °F 29.8 in NE 16.3 mph 26 mph 45.5% 0 in
16:29 72.1 °F 49.6 °F 29.8 in NE 15.7 mph 25.3 mph 44.8% 0 in
16:34 72 °F 50 °F 29.8 in NE 14.7 mph 26.5 mph 45.9% 0 in
16:39 72.3 °F 50.5 °F 29.8 in NE 14.7 mph 26 mph 46.4% 0 in
16:44 72.5 °F 51.8 °F 29.8 in NE 14.7 mph 23 mph 48% 0 in
16:49 72.7 °F 52.5 °F 29.9 in NE 13.6 mph 23 mph 49.1% 0 in
16:54 72.9 °F 52.3 °F 29.9 in ENE 11.8 mph 21 mph 48.7% 0 in
16:59 72.9 °F 52 °F 29.9 in ENE 12.3 mph 24.2 mph 48% 0 in
17:04 72.9 °F 51.8 °F 29.9 in ENE 13 mph 24 mph 47.6% 0 in
17:09 72.7 °F 49.3 °F 29.9 in ENE 13 mph 25.3 mph 43.7% 0 in
17:14 72.1 °F 48.4 °F 29.9 in NE 13 mph 25 mph 42.9% 0 in
17:19 72 °F 48.2 °F 29.9 in NE 12.7 mph 24.2 mph 42.8% 0 in
17:24 72 °F 48.6 °F 29.9 in ENE 12.3 mph 24 mph 43.7% 0 in
17:29 71.6 °F 46.8 °F 29.9 in NE 12.4 mph 24.2 mph 41.1% 0 in
17:34 71.2 °F 46.9 °F 29.9 in NE 12.5 mph 24.2 mph 41.8% 0 in
17:39 71.1 °F 47.5 °F 29.9 in NE 12.7 mph 24 mph 42.9% 0 in
17:44 70.9 °F 46.9 °F 29.9 in NE 13 mph 25.6 mph 42.5% 0 in
17:49 70.7 °F 47.1 °F 29.9 in ENE 13.5 mph 26 mph 43% 0 in
17:54 70.5 °F 47.8 °F 29.8 in ENE 14.5 mph 23.7 mph 44.7% 0 in
17:59 70.2 °F 48.4 °F 29.8 in NE 13.4 mph 24.2 mph 46% 0 in
18:04 69.6 °F 48.6 °F 29.9 in NE 11.8 mph 27.6 mph 46.9% 0 in
18:09 69.4 °F 48.4 °F 29.9 in NE 12.4 mph 28 mph 47% 0 in
18:14 69.3 °F 48.7 °F 29.9 in NE 13.5 mph 23 mph 48.1% 0 in
18:19 69.3 °F 49.3 °F 29.9 in NE 13.3 mph 22 mph 49.1% 0 in
18:24 68.9 °F 49.8 °F 29.9 in NE 13 mph 22 mph 50.4% 0 in
18:29 69.1 °F 49.3 °F 29.9 in NE 12.7 mph 23 mph 49.4% 0 in
18:34 68.7 °F 49.5 °F 29.9 in NE 12.3 mph 23 mph 50% 0 in
18:39 68.7 °F 49.6 °F 29.9 in NE 13.1 mph 22 mph 50.5% 0 in
18:44 68.7 °F 49.8 °F 29.9 in NE 14.5 mph 23 mph 51% 0 in
18:49 68.5 °F 49.6 °F 29.9 in NE 13.9 mph 23 mph 51% 0 in
18:54 68.4 °F 50 °F 29.9 in NE 13 mph 21 mph 51.9% 0 in
18:59 68.4 °F 50 °F 29.9 in NE 12.1 mph 21 mph 52.2% 0 in
19:04 68.2 °F 50.5 °F 29.9 in NE 10.7 mph 16.1 mph 53% 0 in
19:09 68.2 °F 50 °F 29.9 in NNE 10.4 mph 18.4 mph 52.4% 0 in
19:14 67.8 °F 49.6 °F 29.9 in NE 10 mph 21.5 mph 52.2% 0 in
19:19 67.6 °F 50 °F 29.9 in NE 11.1 mph 22 mph 53.3% 0 in
19:24 67.5 °F 50.5 °F 29.9 in NNE 13 mph 18.4 mph 54.7% 0 in
19:29 66.9 °F 50.9 °F 29.9 in NNE 11.9 mph 18 mph 56.1% 0 in
19:34 66.7 °F 51.8 °F 29.9 in NNE 10 mph 14 mph 58.4% 0 in
19:39 66.6 °F 51.3 °F 29.9 in NNE 8.4 mph 9.7 mph 57.8% 0 in
19:44 66.2 °F 51.3 °F 29.9 in NE 5.9 mph 10 mph 58.5% 0.02 in
19:49 65.8 °F 51.4 °F 29.9 in NE 5 mph 7 mph 59.4% 0.03 in
19:54 65.7 °F 52.3 °F 29.9 in NNE 3.6 mph 7.6 mph 62.3% 0.04 in
19:59 64.9 °F 53.1 °F 29.9 in NNE 3.7 mph 9.2 mph 65.5% 0.05 in
20:04 64 °F 52.3 °F 29.9 in NNE 4 mph 13.7 mph 65.8% 0.06 in
20:09 63.3 °F 51.8 °F 29.9 in NE 5.3 mph 14 mph 66% 0.07 in
20:14 63 °F 52.3 °F 29.9 in NE 7.4 mph 12.5 mph 68.6% 0.09 in
20:19 62.4 °F 53.4 °F 29.9 in ENE 7.6 mph 13 mph 72.1% 0.11 in
20:24 62.1 °F 53.8 °F 29.9 in ENE 8.1 mph 13 mph 74.4% 0.13 in
20:29 61.5 °F 53.6 °F 29.9 in NE 7.4 mph 12.5 mph 75% 0.13 in
20:34 61.5 °F 52.9 °F 29.9 in NE 6.2 mph 13 mph 73.5% 0.13 in
20:39 61.3 °F 52.9 °F 29.9 in NE 6.1 mph 13 mph 73.3% 0.13 in
20:44 61.5 °F 53.1 °F 29.9 in ENE 5.9 mph 8.1 mph 73.6% 0.12 in
20:49 61.5 °F 52.7 °F 29.9 in ENE 5.2 mph 9.2 mph 72.6% 0.11 in
20:54 61.7 °F 52.2 °F 29.9 in NE 4 mph 10 mph 71.1% 0.1 in
20:59 61.9 °F 52.3 °F 29.9 in NNE 4.3 mph 10.4 mph 71.2% 0.09 in
21:04 61.9 °F 52.9 °F 29.9 in NNO 4.7 mph 10 mph 72.5% 0.08 in
21:09 61.7 °F 53.2 °F 29.9 in NO 4.5 mph 7.6 mph 73.5% 0.07 in
21:14 61.5 °F 53.4 °F 29.9 in ONO 4 mph 9.2 mph 74.5% 0.05 in
21:19 61.5 °F 54 °F 29.9 in ONO 4.3 mph 9 mph 75.9% 0.04 in
21:24 61.3 °F 54 °F 29.9 in Oeste 4.7 mph 8 mph 76.3% 0.01 in
21:29 61.5 °F 54.3 °F 29.9 in OSO 4.1 mph 6 mph 77.2% 0 in
21:34 61.5 °F 54 °F 29.9 in Oeste 3.1 mph 5.9 mph 76.4% 0 in
21:39 61.5 °F 54 °F 29.9 in Oeste 3 mph 6 mph 75.9% 0 in
21:44 61.9 °F 53.8 °F 29.9 in Oeste 2.9 mph 6.9 mph 75% 0 in
21:49 61.9 °F 54.1 °F 29.9 in OSO 3.3 mph 7 mph 75.6% 0 in
21:54 61.9 °F 54 °F 29.9 in Oeste 4 mph 7 mph 75.1% 0 in
21:59 61.9 °F 53.8 °F 29.9 in ONO 4 mph 8.1 mph 74.6% 0 in
22:04 61.9 °F 53.6 °F 29.9 in Oeste 4 mph 8 mph 74.3% 0 in
22:09 61.9 °F 53.2 °F 29.9 in Oeste 3.9 mph 6.9 mph 73.3% 0 in
22:14 62.1 °F 53.8 °F 29.9 in OSO 3.6 mph 7 mph 74% 0 in
22:19 62.1 °F 53.6 °F 29.9 in Oeste 3.4 mph 6.9 mph 73.8% 0 in
22:24 62.2 °F 53.4 °F 29.9 in OSO 3.1 mph 7 mph 73.1% 0 in
22:29 62.2 °F 53.4 °F 29.9 in OSO 3.1 mph 7 mph 72.7% 0 in
22:34 62.2 °F 53.4 °F 29.9 in OSO 3.1 mph 5 mph 72.7% 0 in
22:39 62.2 °F 53.4 °F 29.9 in Oeste 2.7 mph 5 mph 72.7% 0 in
22:44 62.4 °F 53.4 °F 29.9 in OSO 2 mph 5.8 mph 72.4% 0 in
22:49 62.4 °F 53.1 °F 30 in SO 2.4 mph 6 mph 71.3% 0 in
22:54 62.4 °F 52.9 °F 30 in SO 3.1 mph 5 mph 71.1% 0 in
22:59 62.6 °F 53.1 °F 30 in SSO 3.1 mph 6.9 mph 71.3% 0 in
23:04 62.4 °F 53.8 °F 30 in Sur 3.1 mph 7 mph 73.1% 0 in
23:09 62.2 °F 54.1 °F 30 in Sur 3.7 mph 8.5 mph 74.7% 0 in
23:14 61.9 °F 54 °F 30 in SSO 4.7 mph 9.2 mph 75.1% 0 in
23:19 61.5 °F 53.6 °F 30 in SSO 5.2 mph 10.4 mph 75.1% 0 in
23:24 61.5 °F 53.4 °F 30 in Sur 6.2 mph 10 mph 75% 0 in
23:29 61.5 °F 53.4 °F 30 in Sur 6.1 mph 9.2 mph 75% 0 in
23:34 61.5 °F 53.4 °F 30 in SSO 5.9 mph 9 mph 74.9% 0 in
23:39 61.5 °F 53.2 °F 29.9 in SSO 5.7 mph 8 mph 74% 0 in
23:44 61.3 °F 53.1 °F 29.9 in SSO 5.2 mph 7.4 mph 74% 0 in
23:49 61.5 °F 53.1 °F 30 in SSO 4.8 mph 8.1 mph 73.7% 0 in
23:54 61.5 °F 52.9 °F 30 in SSO 4.3 mph 8 mph 73% 0 in
23:59 61.5 °F 52.7 °F 30 in SO 4.3 mph 8.1 mph 72.8% 0 in
Murcia-Puente Tocinos, España
Compliments of Weather Underground - 3 mb

La estación de MeteoMurcia.com, publica sus datos en los siguientes proyectos:

Weather Underground PWS IMURCIAP2 Meteoclimatic www.awekas.at

W3Counter
Web Analytics